Yukichifuku — JD3610 — position and weather

sailwx.info

Track history (hours):
 
Tides and Currents Weather Stations Pressure Air Temp Water Temp Dewpoint Dewpoint Depression Visibility Wind Speed Wind Dir Waves Ship Positions

Yukichifuku

Last reported at 2018-Apr-19 13:38 UTC. Time now 2018-Apr-20 05:05 UTC.
Position N 34°41' E 135°24'.

Length 49 m.

Type: Cargo ship. MMSI: 431005126.

Date/timePositionNaut miles runAvg speedWind from/ knotsBaromVisibWave heightAir tempDewpointWater temp
2018-Apr-19 13:38N 34°41' E 135°24'0 0.0
2018-Apr-19 13:30N 34°41' E 135°24'4 8.6
2018-Apr-19 13:00N 34°39' E 135°20'510.5
2018-Apr-19 12:30N 34°38' E 135°14'510.0
2018-Apr-19 12:00N 34°37' E 135°08'4 8.6
2018-Apr-19 11:30N 34°37' E 135°03'4 7.7
2018-Apr-19 10:59N 34°38' E 134°58'4 8.4
2018-Apr-19 10:30N 34°38' E 134°53'7 1.1
2018-Apr-19 04:16N 34°42' E 134°46'311.2
2018-Apr-19 03:58N 34°40' E 134°49'510.6
2018-Apr-19 03:30N 34°38' E 134°55'612.0
2018-Apr-19 03:00N 34°38' E 135°02'611.2
2018-Apr-19 02:30N 34°37' E 135°09'611.6
2018-Apr-19 02:00N 34°38' E 135°16'611.3
2018-Apr-19 01:30N 34°40' E 135°22'4 8.4
2018-Apr-19 01:00N 34°43' E 135°26'0 0.0
2018-Apr-19 00:26N 34°43' E 135°26'0 0.0
2018-Apr-18 23:56N 34°43' E 135°26'0 0.0
2018-Apr-18 23:29N 34°43' E 135°26'0 0.0
2018-Apr-18 22:58N 34°43' E 135°26'0 0.0
2018-Apr-18 22:27N 34°43' E 135°26'2 3.8
2018-Apr-18 21:58N 34°41' E 135°24'0 0.0
2018-Apr-18 21:19N 34°41' E 135°24'0 0.0
2018-Apr-18 20:52N 34°41' E 135°24'0 0.1
2018-Apr-18 20:16N 34°41' E 135°24'0 0.0
2018-Apr-18 19:58N 34°41' E 135°24'0 0.1
2018-Apr-18 19:28N 34°41' E 135°24'0 0.0
2018-Apr-18 18:55N 34°41' E 135°24'0 0.1
2018-Apr-18 18:28N 34°41' E 135°24'0 0.0
2018-Apr-18 17:58N 34°41' E 135°24'0 0.1
2018-Apr-18 17:22N 34°41' E 135°24'0 0.0
2018-Apr-18 16:58N 34°41' E 135°24'0 0.1
2018-Apr-18 16:28N 34°41' E 135°24'0 0.0
2018-Apr-18 15:58N 34°41' E 135°24'0 0.0
2018-Apr-18 15:28N 34°41' E 135°24'0 0.0
2018-Apr-18 14:52N 34°41' E 135°24'0 0.0
2018-Apr-18 14:28N 34°41' E 135°24'0 0.0
2018-Apr-18 13:58N 34°41' E 135°24'1 2.3
2018-Apr-18 13:30N 34°41' E 135°23'510.2
2018-Apr-18 13:00N 34°39' E 135°18'510.2
2018-Apr-18 12:30N 34°37' E 135°12'6 9.7
2018-Apr-18 11:55N 34°37' E 135°05'3 6.6
2018-Apr-18 11:30N 34°38' E 135°02'4 7.1
2018-Apr-18 10:59N 34°38' E 134°57'4 7.6
2018-Apr-18 10:28N 34°38' E 134°53'8 1.3
2018-Apr-18 04:27N 34°43' E 134°44'510.8
2018-Apr-18 03:59N 34°40' E 134°50'5 9.7
2018-Apr-18 03:30N 34°38' E 134°55'611.6
2018-Apr-18 03:00N 34°38' E 135°02'611.1
2018-Apr-18 02:30N 34°37' E 135°08'611.9
2018-Apr-18 02:00N 34°38' E 135°15'611.4
2018-Apr-18 01:30N 34°40' E 135°22'4 8.5
2018-Apr-18 01:01N 34°43' E 135°26'0 0.0
2018-Apr-18 00:29N 34°43' E 135°26'0 0.0
2018-Apr-17 23:59N 34°43' E 135°26'0 0.0
2018-Apr-17 23:29N 34°43' E 135°26'0 0.0
2018-Apr-17 22:59N 34°43' E 135°26'0 0.0
2018-Apr-17 22:29N 34°43' E 135°26'2 3.6
2018-Apr-17 22:00N 34°41' E 135°24'0 0.0
2018-Apr-17 21:27N 34°41' E 135°24'0 0.0
2018-Apr-17 21:00N 34°41' E 135°24'0 0.1
2018-Apr-17 20:30N 34°41' E 135°24'0 0.0
2018-Apr-17 20:00N 34°41' E 135°24'0 0.0
2018-Apr-17 19:30N 34°41' E 135°24'0 0.0
2018-Apr-17 19:00N 34°41' E 135°24'0 0.0
2018-Apr-17 18:29N 34°41' E 135°24'0 0.1
2018-Apr-17 17:59N 34°41' E 135°24'0 0.0
2018-Apr-17 17:29N 34°41' E 135°24'0 0.1
2018-Apr-17 16:59N 34°41' E 135°24'0 0.0
2018-Apr-17 16:29N 34°41' E 135°24'0 0.0
2018-Apr-17 15:59N 34°41' E 135°24'3 7.2
2018-Apr-17 15:30N 34°40' E 135°21'510.1
2018-Apr-17 14:59N 34°38' E 135°15'5 9.6
2018-Apr-17 14:30N 34°37' E 135°09'5 9.9
2018-Apr-17 14:00N 34°37' E 135°03'4 7.4
2018-Apr-17 13:30N 34°38' E 134°59'4 7.4
2018-Apr-17 13:00N 34°38' E 134°54'5 9.3
2018-Apr-17 12:26N 34°40' E 134°49'5 0.6
2018-Apr-17 04:29N 34°43' E 134°44'510.7
2018-Apr-17 03:59N 34°40' E 134°49'5 9.5
2018-Apr-17 03:29N 34°38' E 134°55'510.9
2018-Apr-17 03:00N 34°38' E 135°01'510.6
2018-Apr-17 02:30N 34°37' E 135°07'612.3
2018-Apr-17 02:00N 34°38' E 135°15'611.9
2018-Apr-17 01:30N 34°40' E 135°21'5 8.7
2018-Apr-17 00:58N 34°43' E 135°26'0 0.0
2018-Apr-17 00:28N 34°43' E 135°26'0 0.0
2018-Apr-16 23:55N 34°43' E 135°26'0 0.0
2018-Apr-16 23:25N 34°43' E 135°26'0 0.0
2018-Apr-16 22:55N 34°43' E 135°26'0 0.0
2018-Apr-16 22:25N 34°43' E 135°26'2 4.3
2018-Apr-16 22:00N 34°41' E 135°24'0 0.1
2018-Apr-16 21:27N 34°41' E 135°24'0 0.0
2018-Apr-16 21:00N 34°41' E 135°24'0 0.0
2018-Apr-16 20:30N 34°41' E 135°24'0 0.0
2018-Apr-16 20:00N 34°41' E 135°24'0 0.1
2018-Apr-16 19:30N 34°41' E 135°24'0 0.0
2018-Apr-16 18:57N 34°41' E 135°24'0 0.0
2018-Apr-16 18:30N 34°41' E 135°24'0 0.0
2018-Apr-16 17:57N 34°41' E 135°24'0 0.0
2018-Apr-16 17:30N 34°41' E 135°24'0 0.1
2018-Apr-16 16:57N 34°41' E 135°24'0 0.1
2018-Apr-16 16:27N 34°41' E 135°24'0 0.0
2018-Apr-16 15:57N 34°41' E 135°24'0 0.0
2018-Apr-16 15:26N 34°41' E 135°24'4 8.3
2018-Apr-16 15:00N 34°40' E 135°20'5 9.7
2018-Apr-16 14:30N 34°38' E 135°15'5 9.6
2018-Apr-16 14:00N 34°37' E 135°09'5 9.5
2018-Apr-16 13:30N 34°37' E 135°04'4 7.7
2018-Apr-16 12:59N 34°38' E 134°59'4 7.4
2018-Apr-16 12:30N 34°38' E 134°54'26 2.2
2018-Apr-16 00:30N 34°43' E 135°26'0 0.0
2018-Apr-16 00:00N 34°43' E 135°26'0 0.0
2018-Apr-15 23:27N 34°43' E 135°26'0 0.0
2018-Apr-15 22:48N 34°43' E 135°26'0 0.0
2018-Apr-15 22:30N 34°43' E 135°26'0 0.0
2018-Apr-15 22:00N 34°43' E 135°26'0 0.0
2018-Apr-15 21:27N 34°43' E 135°26'0 0.0
2018-Apr-15 21:00N 34°43' E 135°26'0 0.0
2018-Apr-15 20:27N 34°43' E 135°26'0 0.0
2018-Apr-15 20:00N 34°43' E 135°26'0 0.0
2018-Apr-15 19:30N 34°43' E 135°26'0 0.0
2018-Apr-15 19:00N 34°43' E 135°26'0 0.0
2018-Apr-15 18:30N 34°43' E 135°26'0 0.0
2018-Apr-15 18:00N 34°43' E 135°26'0 0.0
2018-Apr-15 17:24N 34°43' E 135°26'0 0.0
2018-Apr-15 17:00N 34°43' E 135°26'0 0.0
2018-Apr-15 16:30N 34°43' E 135°26'0 0.0
2018-Apr-15 15:57N 34°43' E 135°26'0 0.0
2018-Apr-15 15:30N 34°43' E 135°26'0 0.0
2018-Apr-15 14:57N 34°43' E 135°26'0 0.0
2018-Apr-15 14:30N 34°43' E 135°26'0 0.0
2018-Apr-15 14:00N 34°43' E 135°26'0 0.0
2018-Apr-15 13:27N 34°43' E 135°26'0 0.0
2018-Apr-15 13:00N 34°43' E 135°26'0 0.0
2018-Apr-15 12:27N 34°43' E 135°26'0 0.0
2018-Apr-15 11:57N 34°43' E 135°26'0 0.0
2018-Apr-15 11:21N 34°43' E 135°26'0 0.0
2018-Apr-15 11:00N 34°43' E 135°26'0 0.0
2018-Apr-15 10:27N 34°43' E 135°26'0 0.0
2018-Apr-15 10:00N 34°43' E 135°26'0 0.0
2018-Apr-15 09:30N 34°43' E 135°26'0 0.0
2018-Apr-15 08:54N 34°43' E 135°26'0 0.0
2018-Apr-15 08:30N 34°43' E 135°26'0 0.0
2018-Apr-15 07:57N 34°43' E 135°26'0 0.0
2018-Apr-15 07:27N 34°43' E 135°26'0 0.0
2018-Apr-15 07:00N 34°43' E 135°26'0 0.0
2018-Apr-15 06:30N 34°43' E 135°26'1 1.1
2018-Apr-15 06:00N 34°42' E 135°25'4 8.4
2018-Apr-15 05:30N 34°40' E 135°21'5 9.9
2018-Apr-15 05:00N 34°38' E 135°16'510.2
2018-Apr-15 04:30N 34°37' E 135°10'611.5
2018-Apr-15 04:00N 34°37' E 135°03'812.2
2018-Apr-15 03:22N 34°38' E 134°53'11 0.5
2018-Apr-14 04:59N 34°44' E 134°42'5 9.9
2018-Apr-14 04:30N 34°41' E 134°46'5 9.7
2018-Apr-14 04:00N 34°39' E 134°52'5 9.2
2018-Apr-14 03:30N 34°38' E 134°57'5 9.0
2018-Apr-14 03:00N 34°37' E 135°03'5 9.9
2018-Apr-14 02:29N 34°37' E 135°09'611.4
2018-Apr-14 02:00N 34°38' E 135°15'611.4
2018-Apr-14 01:31N 34°40' E 135°22'4 8.6
2018-Apr-14 01:01N 34°43' E 135°26'0 0.0
2018-Apr-14 00:29N 34°43' E 135°26'0 0.0
2018-Apr-13 23:59N 34°43' E 135°26'0 0.0
2018-Apr-13 23:23N 34°43' E 135°26'0 0.0
2018-Apr-13 22:56N 34°43' E 135°26'0 0.6
2018-Apr-13 22:30N 34°43' E 135°26'2 3.1
2018-Apr-13 22:00N 34°41' E 135°24'0 0.0
2018-Apr-13 21:30N 34°41' E 135°24'0 0.1
2018-Apr-13 21:00N 34°41' E 135°24'0 0.0
2018-Apr-13 20:27N 34°41' E 135°24'0 0.0
2018-Apr-13 20:00N 34°41' E 135°24'0 0.0
2018-Apr-13 19:27N 34°41' E 135°24'0 0.0
2018-Apr-13 19:00N 34°41' E 135°24'0 0.0
2018-Apr-13 18:27N 34°41' E 135°24'0 0.0
2018-Apr-13 18:00N 34°41' E 135°24'0 0.1
2018-Apr-13 17:30N 34°41' E 135°24'0 0.0
2018-Apr-13 16:57N 34°41' E 135°24'0 0.0
2018-Apr-13 16:27N 34°41' E 135°24'0 0.1
2018-Apr-13 15:57N 34°41' E 135°24'0 0.1
2018-Apr-13 15:30N 34°41' E 135°24'0 0.0
2018-Apr-13 15:00N 34°41' E 135°24'0 0.0
2018-Apr-13 14:30N 34°41' E 135°24'0 0.0
2018-Apr-13 13:57N 34°41' E 135°24'2 4.7
2018-Apr-13 13:29N 34°40' E 135°22'5 9.9
2018-Apr-13 13:00N 34°38' E 135°17'510.0
2018-Apr-13 12:30N 34°37' E 135°11'5 9.8
2018-Apr-13 11:59N 34°37' E 135°05'4 9.0
2018-Apr-13 11:30N 34°38' E 134°60'4 8.3
2018-Apr-13 11:00N 34°38' E 134°55'11 1.8
2018-Apr-13 04:58N 34°43' E 134°43'510.6
2018-Apr-13 04:28N 34°40' E 134°49'5 9.9
2018-Apr-13 04:00N 34°38' E 134°54'510.1
2018-Apr-13 03:30N 34°38' E 134°60'4 8.5
2018-Apr-13 02:59N 34°37' E 135°05'511.2
2018-Apr-13 02:30N 34°37' E 135°11'611.8
2018-Apr-13 02:00N 34°39' E 135°18'611.4
2018-Apr-13 01:28N 34°42' E 135°25'1 2.6
2018-Apr-13 00:58N 34°43' E 135°26'0 0.0
2018-Apr-13 00:25N 34°43' E 135°26'0 0.0
2018-Apr-12 23:55N 34°43' E 135°26'0 0.0
2018-Apr-12 23:25N 34°43' E 135°26'0 0.0
2018-Apr-12 22:55N 34°43' E 135°26'0 0.0
2018-Apr-12 22:25N 34°43' E 135°26'0 0.0
2018-Apr-12 21:58N 34°43' E 135°26'0 0.0
2018-Apr-12 21:25N 34°43' E 135°26'0 0.0
2018-Apr-12 20:55N 34°43' E 135°26'0 0.0
2018-Apr-12 20:26N 34°43' E 135°26'3 5.8
2018-Apr-12 20:00N 34°41' E 135°24'510.0
2018-Apr-12 19:30N 34°39' E 135°18'5 9.9
2018-Apr-12 19:00N 34°37' E 135°12'510.3
2018-Apr-12 18:30N 34°37' E 135°06'5 9.8
2018-Apr-12 18:00N 34°38' E 135°00'5 9.8
2018-Apr-12 17:30N 34°37' E 134°55'8 0.2
2018-Apr-11 05:35N 34°41' E 134°46'110.9
2018-Apr-11 05:27N 34°40' E 134°48'510.5
2018-Apr-11 05:00N 34°38' E 134°53'510.6
2018-Apr-11 04:30N 34°38' E 134°59'5 9.4
2018-Apr-11 04:00N 34°37' E 135°05'510.3
2018-Apr-11 03:30N 34°37' E 135°11'5 9.7
2018-Apr-11 03:00N 34°38' E 135°17'5 9.7
2018-Apr-11 02:30N 34°40' E 135°22'2 4.0
2018-Apr-11 01:58N 34°41' E 135°24'1 2.5
2018-Apr-11 01:28N 34°42' E 135°25'1 1.3
2018-Apr-11 00:59N 34°43' E 135°26'0 0.0
2018-Apr-11 00:28N 34°43' E 135°26'0 0.0
2018-Apr-10 23:58N 34°43' E 135°26'0 0.0
2018-Apr-10 23:25N 34°43' E 135°26'0 0.0
2018-Apr-10 22:58N 34°43' E 135°26'0 0.3
2018-Apr-10 22:27N 34°43' E 135°26'2 3.2
2018-Apr-10 21:57N 34°41' E 135°24'0 0.1
2018-Apr-10 21:30N 34°41' E 135°24'0 0.0
2018-Apr-10 20:57N 34°41' E 135°24'0 0.0
2018-Apr-10 20:27N 34°41' E 135°24'0 0.0
2018-Apr-10 20:00N 34°41' E 135°24'0 0.0
2018-Apr-10 19:30N 34°41' E 135°24'0 0.0
2018-Apr-10 19:00N 34°41' E 135°24'0 0.0
2018-Apr-10 18:27N 34°41' E 135°24'0 0.0
2018-Apr-10 18:00N 34°41' E 135°24'0 0.0
2018-Apr-10 17:30N 34°41' E 135°24'0 0.0
2018-Apr-10 17:00N 34°41' E 135°24'0 0.0
2018-Apr-10 16:30N 34°41' E 135°24'0 0.0
2018-Apr-10 16:00N 34°41' E 135°24'0 0.0
2018-Apr-10 15:30N 34°41' E 135°24'0 0.0
2018-Apr-10 15:00N 34°41' E 135°24'0 0.0
2018-Apr-10 14:30N 34°41' E 135°24'0 0.1
2018-Apr-10 14:00N 34°41' E 135°24'1 1.5
2018-Apr-10 13:30N 34°41' E 135°24'510.2
2018-Apr-10 13:00N 34°39' E 135°18'510.5
2018-Apr-10 12:30N 34°37' E 135°12'510.3
2018-Apr-10 12:00N 34°37' E 135°06'510.6
2018-Apr-10 11:30N 34°38' E 134°59'510.2
2018-Apr-10 11:00N 34°38' E 134°53'9 1.4
2018-Apr-10 04:27N 34°43' E 134°43'511.1
2018-Apr-10 04:00N 34°40' E 134°49'510.8
2018-Apr-10 03:30N 34°38' E 134°55'611.0
2018-Apr-10 03:00N 34°38' E 135°01'510.9
2018-Apr-10 02:30N 34°37' E 135°08'611.9
2018-Apr-10 02:00N 34°38' E 135°15'611.6
2018-Apr-10 01:30N 34°40' E 135°22'4 8.4
2018-Apr-10 00:58N 34°43' E 135°26'0 0.0
2018-Apr-10 00:28N 34°43' E 135°26'0 0.0
2018-Apr-09 23:58N 34°43' E 135°26'0 0.0
2018-Apr-09 23:28N 34°43' E 135°26'0 0.0
2018-Apr-09 22:58N 34°43' E 135°26'1 1.7
2018-Apr-09 22:27N 34°42' E 135°25'1 2.1
2018-Apr-09 21:59N 34°41' E 135°24'0 0.0
2018-Apr-09 21:26N 34°41' E 135°24'0 0.0
2018-Apr-09 21:00N 34°41' E 135°24'0 0.0
2018-Apr-09 20:30N 34°41' E 135°24'0 0.0
2018-Apr-09 20:00N 34°41' E 135°24'0 0.0
2018-Apr-09 19:21N 34°41' E 135°24'0 0.0
2018-Apr-09 19:00N 34°41' E 135°24'0 0.0
2018-Apr-09 18:30N 34°41' E 135°24'0 0.0
2018-Apr-09 18:00N 34°41' E 135°24'0 0.0
2018-Apr-09 17:30N 34°41' E 135°24'0 0.0
2018-Apr-09 17:00N 34°41' E 135°24'0 0.0
2018-Apr-09 16:27N 34°41' E 135°24'0 0.0
2018-Apr-09 16:00N 34°41' E 135°24'0 0.0
2018-Apr-09 15:30N 34°41' E 135°24'0 0.0
2018-Apr-09 15:00N 34°41' E 135°24'0 0.0
2018-Apr-09 14:30N 34°41' E 135°24'0 0.1
2018-Apr-09 14:00N 34°41' E 135°24'  
Track history (hours):
 
Tides and Currents Weather Stations Pressure Air Temp Water Temp Dewpoint Dewpoint Depression Visibility Wind Speed Wind Dir Waves Ship Positions

Yukichifuku

Last reported at 2018-Apr-19 13:38 UTC. Time now 2018-Apr-20 05:05 UTC.
Position N 34°41' E 135°24'.

Length 49 m.

Type: Cargo ship. MMSI: 431005126.

Date/timePositionNaut miles runAvg speedWind from/ knotsBaromVisibWave heightAir tempDewpointWater temp
2018-Apr-19 13:38N 34°41' E 135°24'0 0.0
2018-Apr-19 13:30N 34°41' E 135°24'4 8.6
2018-Apr-19 13:00N 34°39' E 135°20'510.5
2018-Apr-19 12:30N 34°38' E 135°14'510.0
2018-Apr-19 12:00N 34°37' E 135°08'4 8.6
2018-Apr-19 11:30N 34°37' E 135°03'4 7.7
2018-Apr-19 10:59N 34°38' E 134°58'4 8.4
2018-Apr-19 10:30N 34°38' E 134°53'7 1.1
2018-Apr-19 04:16N 34°42' E 134°46'311.2
2018-Apr-19 03:58N 34°40' E 134°49'510.6
2018-Apr-19 03:30N 34°38' E 134°55'612.0
2018-Apr-19 03:00N 34°38' E 135°02'611.2
2018-Apr-19 02:30N 34°37' E 135°09'611.6
2018-Apr-19 02:00N 34°38' E 135°16'611.3
2018-Apr-19 01:30N 34°40' E 135°22'4 8.4
2018-Apr-19 01:00N 34°43' E 135°26'0 0.0
2018-Apr-19 00:26N 34°43' E 135°26'0 0.0
2018-Apr-18 23:56N 34°43' E 135°26'0 0.0
2018-Apr-18 23:29N 34°43' E 135°26'0 0.0
2018-Apr-18 22:58N 34°43' E 135°26'0 0.0
2018-Apr-18 22:27N 34°43' E 135°26'2 3.8
2018-Apr-18 21:58N 34°41' E 135°24'0 0.0
2018-Apr-18 21:19N 34°41' E 135°24'0 0.0
2018-Apr-18 20:52N 34°41' E 135°24'0 0.1
2018-Apr-18 20:16N 34°41' E 135°24'0 0.0
2018-Apr-18 19:58N 34°41' E 135°24'0 0.1
2018-Apr-18 19:28N 34°41' E 135°24'0 0.0
2018-Apr-18 18:55N 34°41' E 135°24'0 0.1
2018-Apr-18 18:28N 34°41' E 135°24'0 0.0
2018-Apr-18 17:58N 34°41' E 135°24'0 0.1
2018-Apr-18 17:22N 34°41' E 135°24'0 0.0
2018-Apr-18 16:58N 34°41' E 135°24'0 0.1
2018-Apr-18 16:28N 34°41' E 135°24'0 0.0
2018-Apr-18 15:58N 34°41' E 135°24'0 0.0
2018-Apr-18 15:28N 34°41' E 135°24'0 0.0
2018-Apr-18 14:52N 34°41' E 135°24'0 0.0
2018-Apr-18 14:28N 34°41' E 135°24'0 0.0
2018-Apr-18 13:58N 34°41' E 135°24'1 2.3
2018-Apr-18 13:30N 34°41' E 135°23'510.2
2018-Apr-18 13:00N 34°39' E 135°18'510.2
2018-Apr-18 12:30N 34°37' E 135°12'6 9.7
2018-Apr-18 11:55N 34°37' E 135°05'3 6.6
2018-Apr-18 11:30N 34°38' E 135°02'4 7.1
2018-Apr-18 10:59N 34°38' E 134°57'4 7.6
2018-Apr-18 10:28N 34°38' E 134°53'8 1.3
2018-Apr-18 04:27N 34°43' E 134°44'510.8
2018-Apr-18 03:59N 34°40' E 134°50'5 9.7
2018-Apr-18 03:30N 34°38' E 134°55'611.6
2018-Apr-18 03:00N 34°38' E 135°02'611.1
2018-Apr-18 02:30N 34°37' E 135°08'611.9
2018-Apr-18 02:00N 34°38' E 135°15'611.4
2018-Apr-18 01:30N 34°40' E 135°22'4 8.5
2018-Apr-18 01:01N 34°43' E 135°26'0 0.0
2018-Apr-18 00:29N 34°43' E 135°26'0 0.0
2018-Apr-17 23:59N 34°43' E 135°26'0 0.0
2018-Apr-17 23:29N 34°43' E 135°26'0 0.0
2018-Apr-17 22:59N 34°43' E 135°26'0 0.0
2018-Apr-17 22:29N 34°43' E 135°26'2 3.6
2018-Apr-17 22:00N 34°41' E 135°24'0 0.0
2018-Apr-17 21:27N 34°41' E 135°24'0 0.0
2018-Apr-17 21:00N 34°41' E 135°24'0 0.1
2018-Apr-17 20:30N 34°41' E 135°24'0 0.0
2018-Apr-17 20:00N 34°41' E 135°24'0 0.0
2018-Apr-17 19:30N 34°41' E 135°24'0 0.0
2018-Apr-17 19:00N 34°41' E 135°24'0 0.0
2018-Apr-17 18:29N 34°41' E 135°24'0 0.1
2018-Apr-17 17:59N 34°41' E 135°24'0 0.0
2018-Apr-17 17:29N 34°41' E 135°24'0 0.1
2018-Apr-17 16:59N 34°41' E 135°24'0 0.0
2018-Apr-17 16:29N 34°41' E 135°24'0 0.0
2018-Apr-17 15:59N 34°41' E 135°24'3 7.2
2018-Apr-17 15:30N 34°40' E 135°21'510.1
2018-Apr-17 14:59N 34°38' E 135°15'5 9.6
2018-Apr-17 14:30N 34°37' E 135°09'5 9.9
2018-Apr-17 14:00N 34°37' E 135°03'4 7.4
2018-Apr-17 13:30N 34°38' E 134°59'4 7.4
2018-Apr-17 13:00N 34°38' E 134°54'5 9.3
2018-Apr-17 12:26N 34°40' E 134°49'5 0.6
2018-Apr-17 04:29N 34°43' E 134°44'510.7
2018-Apr-17 03:59N 34°40' E 134°49'5 9.5
2018-Apr-17 03:29N 34°38' E 134°55'510.9
2018-Apr-17 03:00N 34°38' E 135°01'510.6
2018-Apr-17 02:30N 34°37' E 135°07'612.3
2018-Apr-17 02:00N 34°38' E 135°15'611.9
2018-Apr-17 01:30N 34°40' E 135°21'5 8.7
2018-Apr-17 00:58N 34°43' E 135°26'0 0.0
2018-Apr-17 00:28N 34°43' E 135°26'0 0.0
2018-Apr-16 23:55N 34°43' E 135°26'0 0.0
2018-Apr-16 23:25N 34°43' E 135°26'0 0.0
2018-Apr-16 22:55N 34°43' E 135°26'0 0.0
2018-Apr-16 22:25N 34°43' E 135°26'2 4.3
2018-Apr-16 22:00N 34°41' E 135°24'0 0.1
2018-Apr-16 21:27N 34°41' E 135°24'0 0.0
2018-Apr-16 21:00N 34°41' E 135°24'0 0.0
2018-Apr-16 20:30N 34°41' E 135°24'0 0.0
2018-Apr-16 20:00N 34°41' E 135°24'0 0.1
2018-Apr-16 19:30N 34°41' E 135°24'0 0.0
2018-Apr-16 18:57N 34°41' E 135°24'0 0.0
2018-Apr-16 18:30N 34°41' E 135°24'0 0.0
2018-Apr-16 17:57N 34°41' E 135°24'0 0.0
2018-Apr-16 17:30N 34°41' E 135°24'0 0.1
2018-Apr-16 16:57N 34°41' E 135°24'0 0.1
2018-Apr-16 16:27N 34°41' E 135°24'0 0.0
2018-Apr-16 15:57N 34°41' E 135°24'0 0.0
2018-Apr-16 15:26N 34°41' E 135°24'4 8.3
2018-Apr-16 15:00N 34°40' E 135°20'5 9.7
2018-Apr-16 14:30N 34°38' E 135°15'5 9.6
2018-Apr-16 14:00N 34°37' E 135°09'5 9.5
2018-Apr-16 13:30N 34°37' E 135°04'4 7.7
2018-Apr-16 12:59N 34°38' E 134°59'4 7.4
2018-Apr-16 12:30N 34°38' E 134°54'26 2.2
2018-Apr-16 00:30N 34°43' E 135°26'0 0.0
2018-Apr-16 00:00N 34°43' E 135°26'0 0.0
2018-Apr-15 23:27N 34°43' E 135°26'0 0.0
2018-Apr-15 22:48N 34°43' E 135°26'0 0.0
2018-Apr-15 22:30N 34°43' E 135°26'0 0.0
2018-Apr-15 22:00N 34°43' E 135°26'0 0.0
2018-Apr-15 21:27N 34°43' E 135°26'0 0.0
2018-Apr-15 21:00N 34°43' E 135°26'0 0.0
2018-Apr-15 20:27N 34°43' E 135°26'0 0.0
2018-Apr-15 20:00N 34°43' E 135°26'0 0.0
2018-Apr-15 19:30N 34°43' E 135°26'0 0.0
2018-Apr-15 19:00N 34°43' E 135°26'0 0.0
2018-Apr-15 18:30N 34°43' E 135°26'0 0.0
2018-Apr-15 18:00N 34°43' E 135°26'0 0.0
2018-Apr-15 17:24N 34°43' E 135°26'0 0.0
2018-Apr-15 17:00N 34°43' E 135°26'0 0.0
2018-Apr-15 16:30N 34°43' E 135°26'0 0.0
2018-Apr-15 15:57N 34°43' E 135°26'0 0.0
2018-Apr-15 15:30N 34°43' E 135°26'0 0.0
2018-Apr-15 14:57N 34°43' E 135°26'0 0.0
2018-Apr-15 14:30N 34°43' E 135°26'0 0.0
2018-Apr-15 14:00N 34°43' E 135°26'0 0.0
2018-Apr-15 13:27N 34°43' E 135°26'0 0.0
2018-Apr-15 13:00N 34°43' E 135°26'0 0.0
2018-Apr-15 12:27N 34°43' E 135°26'0 0.0
2018-Apr-15 11:57N 34°43' E 135°26'0 0.0
2018-Apr-15 11:21N 34°43' E 135°26'0 0.0
2018-Apr-15 11:00N 34°43' E 135°26'0 0.0
2018-Apr-15 10:27N 34°43' E 135°26'0 0.0
2018-Apr-15 10:00N 34°43' E 135°26'0 0.0
2018-Apr-15 09:30N 34°43' E 135°26'0 0.0
2018-Apr-15 08:54N 34°43' E 135°26'0 0.0
2018-Apr-15 08:30N 34°43' E 135°26'0 0.0
2018-Apr-15 07:57N 34°43' E 135°26'0 0.0
2018-Apr-15 07:27N 34°43' E 135°26'0 0.0
2018-Apr-15 07:00N 34°43' E 135°26'0 0.0
2018-Apr-15 06:30N 34°43' E 135°26'1 1.1
2018-Apr-15 06:00N 34°42' E 135°25'4 8.4
2018-Apr-15 05:30N 34°40' E 135°21'5 9.9
2018-Apr-15 05:00N 34°38' E 135°16'510.2
2018-Apr-15 04:30N 34°37' E 135°10'611.5
2018-Apr-15 04:00N 34°37' E 135°03'812.2
2018-Apr-15 03:22N 34°38' E 134°53'11 0.5
2018-Apr-14 04:59N 34°44' E 134°42'5 9.9
2018-Apr-14 04:30N 34°41' E 134°46'5 9.7
2018-Apr-14 04:00N 34°39' E 134°52'5 9.2
2018-Apr-14 03:30N 34°38' E 134°57'5 9.0
2018-Apr-14 03:00N 34°37' E 135°03'5 9.9
2018-Apr-14 02:29N 34°37' E 135°09'611.4
2018-Apr-14 02:00N 34°38' E 135°15'611.4
2018-Apr-14 01:31N 34°40' E 135°22'4 8.6
2018-Apr-14 01:01N 34°43' E 135°26'0 0.0
2018-Apr-14 00:29N 34°43' E 135°26'0 0.0
2018-Apr-13 23:59N 34°43' E 135°26'0 0.0
2018-Apr-13 23:23N 34°43' E 135°26'0 0.0
2018-Apr-13 22:56N 34°43' E 135°26'0 0.6
2018-Apr-13 22:30N 34°43' E 135°26'2 3.1
2018-Apr-13 22:00N 34°41' E 135°24'0 0.0
2018-Apr-13 21:30N 34°41' E 135°24'0 0.1
2018-Apr-13 21:00N 34°41' E 135°24'0 0.0
2018-Apr-13 20:27N 34°41' E 135°24'0 0.0
2018-Apr-13 20:00N 34°41' E 135°24'0 0.0
2018-Apr-13 19:27N 34°41' E 135°24'0 0.0
2018-Apr-13 19:00N 34°41' E 135°24'0 0.0
2018-Apr-13 18:27N 34°41' E 135°24'0 0.0
2018-Apr-13 18:00N 34°41' E 135°24'0 0.1
2018-Apr-13 17:30N 34°41' E 135°24'0 0.0
2018-Apr-13 16:57N 34°41' E 135°24'0 0.0
2018-Apr-13 16:27N 34°41' E 135°24'0 0.1
2018-Apr-13 15:57N 34°41' E 135°24'0 0.1
2018-Apr-13 15:30N 34°41' E 135°24'0 0.0
2018-Apr-13 15:00N 34°41' E 135°24'0 0.0
2018-Apr-13 14:30N 34°41' E 135°24'0 0.0
2018-Apr-13 13:57N 34°41' E 135°24'2 4.7
2018-Apr-13 13:29N 34°40' E 135°22'5 9.9
2018-Apr-13 13:00N 34°38' E 135°17'510.0
2018-Apr-13 12:30N 34°37' E 135°11'5 9.8
2018-Apr-13 11:59N 34°37' E 135°05'4 9.0
2018-Apr-13 11:30N 34°38' E 134°60'4 8.3
2018-Apr-13 11:00N 34°38' E 134°55'11 1.8
2018-Apr-13 04:58N 34°43' E 134°43'510.6
2018-Apr-13 04:28N 34°40' E 134°49'5 9.9
2018-Apr-13 04:00N 34°38' E 134°54'510.1
2018-Apr-13 03:30N 34°38' E 134°60'4 8.5
2018-Apr-13 02:59N 34°37' E 135°05'511.2
2018-Apr-13 02:30N 34°37' E 135°11'611.8
2018-Apr-13 02:00N 34°39' E 135°18'611.4
2018-Apr-13 01:28N 34°42' E 135°25'1 2.6
2018-Apr-13 00:58N 34°43' E 135°26'0 0.0
2018-Apr-13 00:25N 34°43' E 135°26'0 0.0
2018-Apr-12 23:55N 34°43' E 135°26'0 0.0
2018-Apr-12 23:25N 34°43' E 135°26'0 0.0
2018-Apr-12 22:55N 34°43' E 135°26'0 0.0
2018-Apr-12 22:25N 34°43' E 135°26'0 0.0
2018-Apr-12 21:58N 34°43' E 135°26'0 0.0
2018-Apr-12 21:25N 34°43' E 135°26'0 0.0
2018-Apr-12 20:55N 34°43' E 135°26'0 0.0
2018-Apr-12 20:26N 34°43' E 135°26'3 5.8
2018-Apr-12 20:00N 34°41' E 135°24'510.0
2018-Apr-12 19:30N 34°39' E 135°18'5 9.9
2018-Apr-12 19:00N 34°37' E 135°12'510.3
2018-Apr-12 18:30N 34°37' E 135°06'5 9.8
2018-Apr-12 18:00N 34°38' E 135°00'5 9.8
2018-Apr-12 17:30N 34°37' E 134°55'8 0.2
2018-Apr-11 05:35N 34°41' E 134°46'110.9
2018-Apr-11 05:27N 34°40' E 134°48'510.5
2018-Apr-11 05:00N 34°38' E 134°53'510.6
2018-Apr-11 04:30N 34°38' E 134°59'5 9.4
2018-Apr-11 04:00N 34°37' E 135°05'510.3
2018-Apr-11 03:30N 34°37' E 135°11'5 9.7
2018-Apr-11 03:00N 34°38' E 135°17'5 9.7
2018-Apr-11 02:30N 34°40' E 135°22'2 4.0
2018-Apr-11 01:58N 34°41' E 135°24'1 2.5
2018-Apr-11 01:28N 34°42' E 135°25'1 1.3
2018-Apr-11 00:59N 34°43' E 135°26'0 0.0
2018-Apr-11 00:28N 34°43' E 135°26'0 0.0
2018-Apr-10 23:58N 34°43' E 135°26'0 0.0
2018-Apr-10 23:25N 34°43' E 135°26'0 0.0
2018-Apr-10 22:58N 34°43' E 135°26'0 0.3
2018-Apr-10 22:27N 34°43' E 135°26'2 3.2
2018-Apr-10 21:57N 34°41' E 135°24'0 0.1
2018-Apr-10 21:30N 34°41' E 135°24'0 0.0
2018-Apr-10 20:57N 34°41' E 135°24'0 0.0
2018-Apr-10 20:27N 34°41' E 135°24'0 0.0
2018-Apr-10 20:00N 34°41' E 135°24'0 0.0
2018-Apr-10 19:30N 34°41' E 135°24'0 0.0
2018-Apr-10 19:00N 34°41' E 135°24'0 0.0
2018-Apr-10 18:27N 34°41' E 135°24'0 0.0
2018-Apr-10 18:00N 34°41' E 135°24'0 0.0
2018-Apr-10 17:30N 34°41' E 135°24'0 0.0
2018-Apr-10 17:00N 34°41' E 135°24'0 0.0
2018-Apr-10 16:30N 34°41' E 135°24'0 0.0
2018-Apr-10 16:00N 34°41' E 135°24'0 0.0
2018-Apr-10 15:30N 34°41' E 135°24'0 0.0
2018-Apr-10 15:00N 34°41' E 135°24'0 0.0
2018-Apr-10 14:30N 34°41' E 135°24'0 0.1
2018-Apr-10 14:00N 34°41' E 135°24'1 1.5
2018-Apr-10 13:30N 34°41' E 135°24'510.2
2018-Apr-10 13:00N 34°39' E 135°18'510.5
2018-Apr-10 12:30N 34°37' E 135°12'510.3
2018-Apr-10 12:00N 34°37' E 135°06'510.6
2018-Apr-10 11:30N 34°38' E 134°59'510.2
2018-Apr-10 11:00N 34°38' E 134°53'9 1.4
2018-Apr-10 04:27N 34°43' E 134°43'511.1
2018-Apr-10 04:00N 34°40' E 134°49'510.8
2018-Apr-10 03:30N 34°38' E 134°55'611.0
2018-Apr-10 03:00N 34°38' E 135°01'510.9
2018-Apr-10 02:30N 34°37' E 135°08'611.9
2018-Apr-10 02:00N 34°38' E 135°15'611.6
2018-Apr-10 01:30N 34°40' E 135°22'4 8.4
2018-Apr-10 00:58N 34°43' E 135°26'0 0.0
2018-Apr-10 00:28N 34°43' E 135°26'0 0.0
2018-Apr-09 23:58N 34°43' E 135°26'0 0.0
2018-Apr-09 23:28N 34°43' E 135°26'0 0.0
2018-Apr-09 22:58N 34°43' E 135°26'1 1.7
2018-Apr-09 22:27N 34°42' E 135°25'1 2.1
2018-Apr-09 21:59N 34°41' E 135°24'0 0.0
2018-Apr-09 21:26N 34°41' E 135°24'0 0.0
2018-Apr-09 21:00N 34°41' E 135°24'0 0.0
2018-Apr-09 20:30N 34°41' E 135°24'0 0.0
2018-Apr-09 20:00N 34°41' E 135°24'0 0.0
2018-Apr-09 19:21N 34°41' E 135°24'0 0.0
2018-Apr-09 19:00N 34°41' E 135°24'0 0.0
2018-Apr-09 18:30N 34°41' E 135°24'0 0.0
2018-Apr-09 18:00N 34°41' E 135°24'0 0.0
2018-Apr-09 17:30N 34°41' E 135°24'0 0.0
2018-Apr-09 17:00N 34°41' E 135°24'0 0.0
2018-Apr-09 16:27N 34°41' E 135°24'0 0.0
2018-Apr-09 16:00N 34°41' E 135°24'0 0.0
2018-Apr-09 15:30N 34°41' E 135°24'0 0.0
2018-Apr-09 15:00N 34°41' E 135°24'0 0.0
2018-Apr-09 14:30N 34°41' E 135°24'0 0.1
2018-Apr-09 14:00N 34°41' E 135°24'  

Dump ship's entire track history